Silkstone, United Kingdom
Current Conditions -  °F | °C
As of 6:20 AM on Friday 19 Dec 2014 (Local Time) from EGNM Reporting Station
Clear Clear  
Wind Chill: 31°   Ceiling: Unl
Heat Index: 41°   Visibility: 6mi
Dew Point: 34°   Wind: 25mph
Humidity: 76%   Direction: 270°W
Pressure: 29.65"   Gusts: 40mph
Location:  53.55°N, 1.56°W
Report Text: EGNM 190620Z 27022G35KT CAVOK 05/01 Q1004
Loading
Personal Weather Stations






























Interactive Weather Map New forecast layout! Learn more

10-Day Weather Forecast

Advertisements
Track Severe Weather on mobile